createdAt,value
2022-08-01T00:01:33.516Z,2.75
2022-08-01T00:04:02.041Z,2.78
2022-08-01T00:06:30.277Z,2.78
2022-08-01T00:08:58.747Z,2.33
2022-08-01T00:11:28.467Z,3.00
2022-08-01T00:13:56.736Z,2.47
2022-08-01T00:16:24.924Z,2.95
2022-08-01T00:18:53.712Z,2.55
2022-08-01T00:21:22.202Z,3.00
2022-08-01T00:23:50.412Z,2.80
2022-08-01T00:26:18.780Z,2.97
2022-08-01T00:28:48.672Z,2.45
2022-08-01T00:31:16.902Z,2.63
2022-08-01T00:33:45.159Z,2.10
2022-08-01T00:36:13.446Z,3.15
2022-08-01T00:38:41.604Z,2.72
2022-08-01T00:41:09.828Z,2.90
2022-08-01T00:43:38.120Z,2.88
2022-08-01T00:46:07.852Z,2.42
2022-08-01T00:48:36.106Z,2.28
2022-08-01T00:51:05.612Z,2.58
2022-08-01T00:53:51.190Z,2.63
2022-08-01T00:56:21.217Z,2.45
2022-08-01T00:58:49.802Z,2.55
2022-08-01T01:01:21.693Z,2.25
2022-08-01T01:03:59.442Z,2.35
2022-08-01T01:06:33.012Z,2.20
2022-08-01T01:09:14.445Z,2.88
2022-08-01T01:11:48.852Z,2.60
2022-08-01T01:14:29.770Z,2.28
2022-08-01T01:17:02.376Z,2.58
2022-08-01T01:19:35.572Z,2.42
2022-08-01T01:22:21.158Z,2.83
2022-08-01T01:25:04.876Z,2.92
2022-08-01T01:27:44.910Z,2.42
2022-08-01T01:30:15.134Z,2.85
2022-08-01T01:32:47.125Z,2.50
2022-08-01T01:35:21.071Z,2.47
2022-08-01T01:37:52.216Z,2.40
2022-08-01T01:40:21.666Z,2.47
2022-08-01T01:42:51.567Z,2.70
2022-08-01T01:45:22.522Z,2.65
2022-08-01T01:47:51.580Z,2.38
2022-08-01T01:50:22.130Z,2.42
2022-08-01T01:52:51.400Z,2.33
2022-08-01T01:55:23.316Z,3.03
2022-08-01T01:57:54.497Z,2.42
2022-08-01T02:00:25.599Z,2.90
2022-08-01T02:02:55.055Z,3.05
2022-08-01T02:05:24.257Z,3.03
2022-08-01T02:07:59.657Z,2.25
2022-08-01T02:10:29.214Z,2.15
2022-08-01T02:12:59.503Z,2.60
2022-08-01T02:15:31.971Z,2.17
2022-08-01T02:18:01.812Z,2.50
2022-08-01T02:20:32.526Z,2.40
2022-08-01T02:23:08.957Z,2.60
2022-08-01T02:26:10.217Z,2.88
2022-08-01T02:28:35.025Z,2.13
2022-08-01T02:31:09.421Z,2.53
2022-08-01T02:33:40.812Z,2.83
2022-08-01T02:36:30.492Z,2.60
2022-08-01T02:39:01.289Z,2.25
2022-08-01T02:41:31.132Z,2.50
2022-08-01T02:44:02.437Z,2.67
2022-08-01T02:46:37.292Z,2.25
2022-08-01T02:49:09.038Z,2.67
2022-08-01T02:51:38.400Z,2.10
2022-08-01T02:54:09.431Z,1.98
2022-08-01T02:56:38.823Z,2.58
2022-08-01T02:59:08.985Z,2.17
2022-08-01T03:01:42.018Z,2.47
2022-08-01T03:04:11.172Z,2.63
2022-08-01T03:06:42.679Z,2.88
2022-08-01T03:09:16.715Z,2.00
2022-08-01T03:11:46.618Z,2.22
2022-08-01T03:14:16.515Z,2.72
2022-08-01T03:16:48.609Z,2.38
2022-08-01T03:19:18.597Z,2.30
2022-08-01T03:21:48.177Z,2.50
2022-08-01T03:24:18.142Z,2.40
2022-08-01T03:26:48.327Z,2.10
2022-08-01T03:29:20.992Z,2.33
2022-08-01T03:31:51.632Z,2.40
2022-08-01T03:34:22.677Z,2.00
2022-08-01T03:36:55.800Z,2.47
2022-08-01T03:39:30.850Z,2.20
2022-08-01T03:42:04.176Z,2.70
2022-08-01T03:44:36.028Z,2.70
2022-08-01T03:47:09.585Z,1.95
2022-08-01T03:49:44.051Z,2.35
2022-08-01T03:52:13.867Z,2.15
2022-08-01T03:54:47.676Z,1.90
2022-08-01T03:57:34.866Z,1.70
2022-08-01T04:00:09.120Z,1.92
2022-08-01T04:02:40.126Z,1.90
2022-08-01T04:05:09.486Z,2.20
2022-08-01T04:07:40.270Z,2.20
2022-08-01T04:10:09.243Z,2.20
2022-08-01T04:12:37.676Z,1.77
2022-08-01T04:15:07.754Z,2.08
2022-08-01T04:17:35.926Z,2.20
2022-08-01T04:20:06.211Z,1.90
2022-08-01T04:22:37.403Z,2.42
2022-08-01T04:25:10.490Z,3.00
2022-08-01T04:27:49.798Z,1.70
2022-08-01T04:30:26.169Z,2.58
2022-08-01T04:32:56.806Z,2.25
2022-08-01T04:36:04.204Z,2.00
2022-08-01T04:38:24.110Z,2.30
2022-08-01T04:40:54.378Z,1.70
2022-08-01T04:43:23.032Z,1.67
2022-08-01T04:45:52.974Z,2.10
2022-08-01T04:48:22.645Z,2.20
2022-08-01T04:50:53.228Z,1.95
2022-08-01T04:53:23.650Z,2.33
2022-08-01T04:55:51.861Z,2.45
2022-08-01T04:58:20.607Z,2.33
2022-08-01T05:00:49.343Z,1.95
2022-08-01T05:03:17.796Z,2.17
2022-08-01T05:05:46.175Z,2.38
2022-08-01T05:08:17.437Z,2.20
2022-08-01T05:10:46.013Z,2.25
2022-08-01T05:13:14.263Z,2.38
2022-08-01T05:15:42.511Z,2.25
2022-08-01T05:18:10.933Z,2.42
2022-08-01T05:20:39.389Z,1.75
2022-08-01T05:23:10.346Z,1.45
2022-08-01T05:25:57.212Z,2.00
2022-08-01T05:28:26.669Z,1.85
2022-08-01T05:30:56.127Z,2.17
2022-08-01T05:33:24.670Z,2.20
2022-08-01T05:35:53.007Z,2.33
2022-08-01T05:38:21.217Z,2.10
2022-08-01T05:40:51.043Z,2.00
2022-08-01T05:43:19.299Z,2.17
2022-08-01T05:45:48.335Z,1.70
2022-08-01T05:48:16.595Z,1.77
2022-08-01T05:50:44.837Z,2.33
2022-08-01T05:53:13.033Z,2.13
2022-08-01T05:55:41.300Z,2.38
2022-08-01T05:58:12.447Z,2.45
2022-08-01T06:00:41.097Z,2.20
2022-08-01T06:03:09.430Z,2.58
2022-08-01T06:05:37.739Z,2.00
2022-08-01T06:08:06.293Z,1.58
2022-08-01T06:10:34.675Z,2.13
2022-08-01T06:13:04.238Z,2.15
2022-08-01T06:15:34.680Z,2.38
2022-08-01T06:18:03.039Z,1.65
2022-08-01T06:20:31.194Z,2.08
2022-08-01T06:22:59.871Z,2.17
2022-08-01T06:25:31.801Z,2.20
2022-08-01T06:28:00.124Z,1.98
2022-08-01T06:30:28.868Z,2.35
2022-08-01T06:32:59.694Z,2.38
2022-08-01T06:35:29.572Z,1.95
2022-08-01T06:37:58.009Z,2.22
2022-08-01T06:40:28.254Z,1.90
2022-08-01T06:42:56.419Z,1.75
2022-08-01T06:45:26.820Z,2.35
2022-08-01T06:47:55.061Z,1.85
2022-08-01T06:50:24.776Z,2.50
2022-08-01T06:52:52.972Z,2.08
2022-08-01T06:55:21.651Z,2.10
2022-08-01T06:57:51.709Z,2.17
2022-08-01T07:00:23.408Z,1.95
2022-08-01T07:02:52.035Z,2.30
2022-08-01T07:05:20.777Z,1.70
2022-08-01T07:07:51.049Z,2.15
2022-08-01T07:10:19.870Z,2.22
2022-08-01T07:12:48.145Z,2.25
2022-08-01T07:15:16.645Z,1.77
2022-08-01T07:17:45.417Z,2.28
2022-08-01T07:20:16.287Z,1.80
2022-08-01T07:22:47.401Z,2.20
2022-08-01T07:25:18.026Z,1.88
2022-08-01T07:27:47.201Z,2.03
2022-08-01T07:30:15.842Z,1.60
2022-08-01T07:32:44.202Z,1.90
2022-08-01T07:35:12.633Z,2.20
2022-08-01T07:37:46.305Z,1.77
2022-08-01T07:40:20.230Z,1.67
2022-08-01T07:42:49.315Z,1.50
2022-08-01T07:45:18.096Z,2.03
2022-08-01T07:47:48.989Z,2.00
2022-08-01T07:50:17.305Z,2.03
2022-08-01T07:52:45.996Z,1.63
2022-08-01T07:55:16.611Z,1.88
2022-08-01T07:57:49.509Z,2.25
2022-08-01T08:00:18.391Z,2.00
2022-08-01T08:02:47.108Z,2.22
2022-08-01T08:05:15.442Z,1.65
2022-08-01T08:08:03.789Z,1.88
2022-08-01T08:40:08.442Z,2.05
2022-08-01T08:42:37.316Z,1.90
2022-08-01T08:45:07.731Z,1.52
2022-08-01T08:47:41.756Z,1.42
2022-08-01T08:50:10.634Z,2.00
2022-08-01T08:52:41.315Z,2.15
2022-08-01T08:55:15.452Z,1.80
2022-08-01T08:57:45.944Z,2.22
2022-08-01T09:00:17.344Z,2.67
2022-08-01T09:02:47.606Z,1.90
2022-08-01T09:05:19.526Z,1.63
2022-08-01T09:07:48.404Z,2.20
2022-08-01T09:10:18.103Z,2.10
2022-08-01T09:13:12.063Z,2.25
2022-08-01T09:15:42.529Z,1.80
2022-08-01T09:18:11.499Z,1.77
2022-08-01T09:20:39.831Z,2.35
2022-08-01T09:23:08.145Z,2.30
2022-08-01T09:25:56.791Z,2.17
2022-08-01T09:28:30.316Z,2.17
2022-08-01T09:30:59.049Z,1.83
2022-08-01T09:33:27.500Z,1.73
2022-08-01T09:35:58.526Z,2.25
2022-08-01T09:38:28.854Z,2.00
2022-08-01T09:41:01.997Z,1.98
2022-08-01T09:43:32.039Z,2.15
2022-08-01T09:46:12.625Z,2.25
2022-08-01T09:48:41.675Z,2.20
2022-08-01T09:51:11.686Z,2.30
2022-08-01T09:54:00.305Z,2.55
2022-08-01T09:56:39.072Z,2.10
2022-08-01T09:59:08.733Z,2.08
2022-08-01T10:01:47.686Z,2.22
2022-08-01T10:04:18.532Z,2.00
2022-08-01T10:06:50.881Z,2.00
2022-08-01T10:09:40.039Z,2.08
2022-08-01T10:12:15.613Z,2.33
2022-08-01T10:14:46.146Z,2.42
2022-08-01T10:17:20.573Z,2.45
2022-08-01T10:19:55.724Z,2.70
2022-08-01T10:22:28.021Z,2.20
2022-08-01T10:25:00.226Z,2.33
2022-08-01T10:27:37.939Z,2.08
2022-08-01T10:30:19.675Z,2.30
2022-08-01T10:32:51.337Z,1.88
2022-08-01T10:35:47.079Z,2.20
2022-08-01T10:38:10.850Z,2.58
2022-08-01T10:40:43.627Z,2.67
2022-08-01T10:43:13.806Z,2.42
2022-08-01T10:45:52.410Z,2.05
2022-08-01T10:48:24.642Z,2.30
2022-08-01T10:50:57.929Z,1.92
2022-08-01T10:53:31.568Z,1.98
2022-08-01T10:56:14.961Z,1.77
2022-08-01T10:58:49.017Z,2.25
2022-08-01T11:01:27.917Z,2.42
2022-08-01T11:04:16.093Z,1.98
2022-08-01T11:06:55.035Z,2.28
2022-08-01T11:09:40.541Z,2.08
2022-08-01T11:12:23.407Z,1.63
2022-08-01T11:15:30.218Z,1.90
2022-08-01T11:18:05.882Z,2.00
2022-08-01T11:20:41.795Z,2.05
2022-08-01T11:23:23.540Z,2.30
2022-08-01T11:26:12.471Z,2.00
2022-08-01T11:28:54.440Z,2.03
2022-08-01T11:31:37.010Z,2.30
2022-08-01T11:34:07.104Z,2.22
2022-08-01T11:39:23.768Z,2.35
2022-08-01T11:41:53.771Z,2.33
2022-08-01T11:44:30.363Z,2.38
2022-08-01T11:47:09.466Z,2.63
2022-08-01T11:50:00.694Z,2.28
2022-08-01T11:52:36.319Z,2.70
2022-08-01T11:55:11.469Z,2.30
2022-08-01T11:57:40.171Z,2.53
2022-08-01T12:00:16.687Z,2.05
2022-08-01T12:02:48.444Z,2.55
2022-08-01T12:05:25.020Z,2.40
2022-08-01T12:07:56.372Z,2.35
2022-08-01T12:10:26.219Z,2.15
2022-08-01T12:12:56.318Z,2.47
2022-08-01T12:15:26.158Z,2.55
2022-08-01T12:18:00.910Z,2.35
2022-08-01T12:20:33.036Z,2.33
2022-08-01T12:23:03.192Z,2.55
2022-08-01T12:25:31.758Z,2.42
2022-08-01T12:28:02.681Z,2.67
2022-08-01T12:30:36.583Z,2.30
2022-08-01T12:33:07.823Z,1.92
2022-08-01T12:35:37.516Z,2.03
2022-08-01T12:38:07.983Z,1.90
2022-08-01T12:40:42.094Z,1.27
2022-08-01T12:43:27.580Z,1.85
2022-08-01T12:45:58.685Z,1.95
2022-08-01T12:48:29.156Z,1.70
2022-08-01T12:51:02.094Z,1.80
2022-08-01T12:53:40.949Z,1.80
2022-08-01T12:56:10.649Z,1.90
2022-08-01T12:58:39.006Z,1.52
2022-08-01T13:01:08.606Z,1.77
2022-08-01T13:03:38.600Z,1.52
2022-08-01T13:06:13.615Z,1.48
2022-08-01T13:08:42.220Z,1.83
2022-08-01T13:11:15.354Z,1.60
2022-08-01T13:13:45.877Z,1.70
2022-08-01T13:16:15.618Z,2.50
2022-08-01T13:18:57.344Z,2.28
2022-08-01T13:21:27.125Z,2.33
2022-08-01T13:24:08.157Z,2.45
2022-08-01T13:26:48.409Z,2.72
2022-08-01T13:29:18.411Z,1.85
2022-08-01T13:31:46.838Z,2.10
2022-08-01T13:34:18.493Z,2.00
2022-08-01T13:36:49.676Z,1.95
2022-08-01T13:39:35.911Z,2.00
2022-08-01T13:42:04.393Z,1.60
2022-08-01T13:44:33.186Z,2.00
2022-08-01T13:47:02.858Z,1.90
2022-08-01T13:49:44.923Z,1.27
2022-08-01T13:52:13.356Z,1.60
2022-08-01T13:54:41.791Z,1.00
2022-08-01T13:57:10.518Z,1.30
2022-08-01T13:59:38.753Z,1.17
2022-08-01T14:02:10.037Z,1.55
2022-08-01T14:04:38.555Z,1.40
2022-08-01T14:07:11.822Z,1.13
2022-08-01T14:09:45.054Z,1.55
2022-08-01T14:12:26.065Z,1.42
2022-08-01T14:14:54.510Z,1.27
2022-08-01T14:17:22.773Z,1.48
2022-08-01T14:19:50.990Z,1.38
2022-08-01T14:22:20.805Z,1.65
2022-08-01T14:24:50.182Z,1.33
2022-08-01T14:27:18.370Z,1.50
2022-08-01T14:30:03.080Z,1.13
2022-08-01T14:32:34.380Z,1.17
2022-08-01T14:35:03.039Z,1.30
2022-08-01T14:37:37.860Z,1.42
2022-08-01T14:40:10.606Z,1.67
2022-08-01T14:42:40.036Z,1.52
2022-08-01T14:45:10.694Z,1.20
2022-08-01T14:47:39.208Z,1.42
2022-08-01T14:50:13.399Z,1.38
2022-08-01T14:52:44.218Z,1.75
2022-08-01T14:55:13.976Z,1.70
2022-08-01T14:57:42.545Z,1.33
2022-08-01T15:00:13.490Z,1.45
2022-08-01T15:02:42.483Z,1.60
2022-08-01T15:05:11.485Z,1.50
2022-08-01T15:07:43.101Z,1.73
2022-08-01T15:10:24.101Z,1.40
2022-08-01T15:12:52.307Z,1.40
2022-08-01T15:15:22.108Z,1.45
2022-08-01T15:17:50.372Z,1.80
2022-08-01T15:20:18.717Z,1.50
2022-08-01T15:22:47.057Z,1.67
2022-08-01T15:25:15.615Z,1.98
2022-08-01T15:27:45.314Z,1.70
2022-08-01T15:30:14.120Z,1.45
2022-08-01T15:32:42.371Z,1.67
2022-08-01T15:35:12.211Z,1.67
2022-08-01T15:37:43.021Z,1.65
2022-08-01T15:40:12.722Z,1.90
2022-08-01T15:42:40.937Z,1.40
2022-08-01T15:45:37.422Z,1.88
2022-08-01T15:48:01.849Z,2.05
2022-08-01T15:50:29.908Z,1.90
2022-08-01T15:52:58.298Z,1.55
2022-08-01T15:55:26.547Z,1.90
2022-08-01T15:57:54.780Z,2.13
2022-08-01T16:00:24.769Z,1.80
2022-08-01T16:03:01.266Z,1.92
2022-08-01T16:05:29.521Z,1.67
2022-08-01T16:08:01.574Z,2.20
2022-08-01T16:10:30.835Z,2.22
2022-08-01T16:13:00.281Z,1.80
2022-08-01T16:15:37.893Z,1.98
2022-08-01T16:18:07.109Z,1.85
2022-08-01T16:20:35.359Z,1.60
2022-08-01T16:23:03.919Z,1.80
2022-08-01T16:25:32.160Z,1.98
2022-08-01T16:28:03.321Z,1.80
2022-08-01T16:30:32.021Z,2.00
2022-08-01T16:33:07.247Z,2.15
2022-08-01T16:35:50.328Z,1.80
2022-08-01T16:38:22.056Z,1.98
2022-08-01T16:40:51.202Z,1.90
2022-08-01T16:43:20.925Z,1.77
2022-08-01T16:45:49.427Z,2.05
2022-08-01T16:48:19.897Z,1.70
2022-08-01T16:50:50.306Z,1.60
2022-08-01T16:53:19.109Z,1.65
2022-08-01T16:55:50.489Z,1.50
2022-08-01T16:58:27.206Z,1.48
2022-08-01T17:00:57.597Z,1.65
2022-08-01T17:03:53.749Z,1.50
2022-08-01T17:06:23.131Z,1.65
2022-08-01T17:08:51.426Z,1.45
2022-08-01T17:11:19.666Z,1.70
2022-08-01T17:13:48.003Z,1.73
2022-08-01T17:16:16.533Z,1.40
2022-08-01T17:18:46.235Z,1.60
2022-08-01T17:21:14.495Z,2.30
2022-08-01T17:23:42.794Z,1.60
2022-08-01T17:26:11.167Z,1.58
2022-08-01T17:28:39.376Z,1.67
2022-08-01T17:31:10.420Z,1.60
2022-08-01T17:33:44.644Z,1.33
2022-08-01T17:36:17.852Z,1.65
2022-08-01T17:38:46.172Z,1.60
2022-08-01T17:41:14.713Z,1.33
2022-08-01T17:43:43.297Z,1.67
2022-08-01T17:46:11.758Z,1.50
2022-08-01T17:48:40.355Z,1.88
2022-08-01T17:51:08.506Z,1.42
2022-08-01T17:53:38.206Z,1.52
2022-08-01T17:56:25.836Z,2.15
2022-08-01T17:58:54.300Z,1.70
2022-08-01T18:01:27.066Z,1.70
2022-08-01T18:03:57.619Z,1.70
2022-08-01T18:06:26.623Z,1.50
2022-08-01T18:08:59.440Z,1.77
2022-08-01T18:11:31.762Z,1.73
2022-08-01T18:14:06.166Z,1.73
2022-08-01T18:16:34.420Z,1.60
2022-08-01T18:19:02.958Z,1.50
2022-08-01T18:21:32.228Z,1.40
2022-08-01T18:24:02.690Z,1.92
2022-08-01T18:26:31.098Z,1.83
2022-08-01T18:28:59.359Z,2.35
2022-08-01T18:31:27.543Z,1.30
2022-08-01T18:33:55.840Z,1.50
2022-08-01T18:36:33.241Z,1.40
2022-08-01T18:39:06.615Z,1.92
2022-08-01T18:41:39.817Z,1.60
2022-08-01T18:44:09.367Z,1.40
2022-08-01T18:46:39.666Z,1.67
2022-08-01T18:49:09.847Z,1.75
2022-08-01T18:51:43.753Z,1.67
2022-08-01T18:54:14.812Z,1.10
2022-08-01T18:56:43.622Z,1.67
2022-08-01T18:59:12.851Z,1.70
2022-08-01T19:01:41.099Z,1.60
2022-08-01T19:04:10.636Z,1.83
2022-08-01T19:06:40.368Z,1.30
2022-08-01T19:09:09.159Z,1.90
2022-08-01T19:11:39.072Z,2.40
2022-08-01T19:14:07.402Z,1.60
2022-08-01T19:16:36.024Z,1.70
2022-08-01T19:19:06.937Z,1.23
2022-08-01T19:21:35.414Z,1.65
2022-08-01T19:24:23.575Z,2.13
2022-08-01T19:26:55.705Z,1.60
2022-08-01T19:29:33.001Z,1.98
2022-08-01T19:32:05.580Z,2.65
2022-08-01T19:34:36.679Z,1.63
2022-08-01T19:37:05.504Z,1.80
2022-08-01T19:39:34.141Z,1.65
2022-08-01T19:42:04.540Z,1.90
2022-08-01T19:44:33.064Z,2.00
2022-08-01T19:47:02.153Z,2.50
2022-08-01T19:49:30.548Z,2.10
2022-08-01T19:52:02.753Z,1.55
2022-08-01T19:54:35.876Z,1.70
2022-08-01T19:57:08.546Z,2.10
2022-08-01T19:59:37.553Z,2.00
2022-08-01T20:02:06.470Z,2.17
2022-08-01T20:04:35.646Z,2.25
2022-08-01T20:07:04.779Z,1.92
2022-08-01T20:09:33.468Z,2.00
2022-08-01T20:12:01.835Z,2.20
2022-08-01T20:14:31.603Z,1.98
2022-08-01T20:17:00.003Z,2.08
2022-08-01T20:19:29.492Z,2.80
2022-08-01T20:22:03.058Z,1.80
2022-08-01T20:24:39.562Z,2.20
2022-08-01T20:27:11.135Z,2.22
2022-08-01T20:29:41.992Z,1.85
2022-08-01T20:32:10.505Z,1.95
2022-08-01T20:34:40.551Z,2.35
2022-08-01T20:37:13.074Z,2.95
2022-08-01T20:39:45.229Z,1.83
2022-08-01T20:42:14.832Z,2.22
2022-08-01T20:44:45.467Z,2.30
2022-08-01T20:47:15.497Z,2.03
2022-08-01T20:49:45.532Z,2.05
2022-08-01T20:52:15.628Z,2.05
2022-08-01T20:54:45.125Z,2.08
2022-08-01T20:57:18.349Z,2.20
2022-08-01T20:59:55.486Z,2.10
2022-08-01T21:02:38.931Z,1.73
2022-08-01T21:05:11.029Z,2.28
2022-08-01T21:07:44.301Z,2.63
2022-08-01T21:10:15.391Z,2.00
2022-08-01T21:12:45.931Z,1.95
2022-08-01T21:15:23.064Z,2.28
2022-08-01T21:17:59.293Z,1.80
2022-08-01T21:20:30.731Z,2.85
2022-08-01T21:23:11.257Z,2.47
2022-08-01T21:25:39.642Z,2.47
2022-08-01T21:28:07.905Z,2.42
2022-08-01T21:30:38.249Z,1.90
2022-08-01T21:33:12.051Z,2.08
2022-08-01T21:35:41.521Z,2.22
2022-08-01T21:38:10.720Z,1.88
2022-08-01T21:40:39.250Z,1.67
2022-08-01T21:43:10.010Z,1.50
2022-08-01T21:45:57.566Z,2.35
2022-08-01T21:48:30.730Z,2.00
2022-08-01T21:51:00.499Z,1.92
2022-08-01T21:53:39.121Z,2.42
2022-08-01T21:56:23.654Z,1.92
2022-08-01T21:58:59.384Z,2.22
2022-08-01T22:01:52.163Z,2.30
2022-08-01T22:04:28.053Z,2.20
2022-08-01T22:06:57.453Z,1.83
2022-08-01T22:09:31.370Z,1.88
2022-08-01T22:12:06.125Z,2.17
2022-08-01T22:14:35.981Z,1.83
2022-08-01T22:17:05.693Z,1.95
2022-08-01T22:19:45.574Z,1.88
2022-08-01T22:22:45.012Z,1.85
2022-08-01T22:25:06.051Z,1.80
2022-08-01T22:28:08.653Z,2.20
2022-08-01T22:30:23.008Z,1.75
2022-08-01T22:33:16.697Z,2.17
2022-08-01T22:35:42.034Z,1.70
2022-08-01T22:38:10.303Z,2.00
2022-08-01T22:40:44.422Z,2.33
2022-08-01T22:43:23.556Z,1.90
2022-08-01T22:46:01.452Z,1.48
2022-08-01T22:48:42.839Z,2.03
2022-08-01T22:51:21.030Z,2.05
2022-08-01T22:54:00.279Z,2.20
2022-08-01T22:56:33.406Z,1.52
2022-08-01T22:59:06.052Z,1.33
2022-08-01T23:01:35.740Z,1.27
2022-08-01T23:04:08.493Z,1.27
2022-08-01T23:06:42.830Z,1.40
2022-08-01T23:09:11.735Z,1.00
2022-08-01T23:11:40.627Z,1.42
2022-08-01T23:14:09.524Z,1.35
2022-08-01T23:16:39.453Z,1.60
2022-08-01T23:19:11.498Z,1.30
2022-08-01T23:21:41.998Z,1.40
2022-08-01T23:24:10.950Z,1.48
2022-08-01T23:26:39.530Z,1.27
2022-08-01T23:29:09.142Z,1.33
2022-08-01T23:32:03.351Z,1.38
2022-08-01T23:34:27.196Z,1.60
2022-08-01T23:36:55.572Z,1.52
2022-08-01T23:39:23.794Z,1.33
2022-08-01T23:41:57.300Z,1.58
2022-08-01T23:44:27.275Z,1.42
2022-08-01T23:46:55.637Z,1.30
2022-08-01T23:49:23.973Z,1.33
2022-08-01T23:51:54.073Z,1.65
2022-08-01T23:54:22.908Z,1.23
2022-08-01T23:56:52.368Z,1.63
2022-08-01T23:59:21.217Z,1.70
